sensor_id;sensor_type;location;lat;lon;timestamp;temperature;humidity
65207;SHT31;58477;48.072;11.970;2023-02-24T00:01:47;4.35;96.59
65207;SHT31;58477;48.072;11.970;2023-02-24T00:04:17;4.20;96.43
65207;SHT31;58477;48.072;11.970;2023-02-24T00:06:43;4.33;97.45
65207;SHT31;58477;48.072;11.970;2023-02-24T00:09:14;4.42;97.67
65207;SHT31;58477;48.072;11.970;2023-02-24T00:11:42;4.43;97.14
65207;SHT31;58477;48.072;11.970;2023-02-24T00:14:11;4.42;97.08
65207;SHT31;58477;48.072;11.970;2023-02-24T00:16:40;4.39;96.91
65207;SHT31;58477;48.072;11.970;2023-02-24T00:19:06;4.39;96.94
65207;SHT31;58477;48.072;11.970;2023-02-24T00:21:32;4.47;97.04
65207;SHT31;58477;48.072;11.970;2023-02-24T00:23:58;4.54;97.20
65207;SHT31;58477;48.072;11.970;2023-02-24T00:26:24;4.60;97.06
65207;SHT31;58477;48.072;11.970;2023-02-24T00:28:51;4.64;96.46
65207;SHT31;58477;48.072;11.970;2023-02-24T00:31:18;4.56;95.88
65207;SHT31;58477;48.072;11.970;2023-02-24T00:33:45;4.49;95.35
65207;SHT31;58477;48.072;11.970;2023-02-24T00:36:14;4.43;95.10
65207;SHT31;58477;48.072;11.970;2023-02-24T00:38:42;4.37;95.05
65207;SHT31;58477;48.072;11.970;2023-02-24T00:41:16;4.36;95.25
65207;SHT31;58477;48.072;11.970;2023-02-24T00:43:45;4.29;95.42
65207;SHT31;58477;48.072;11.970;2023-02-24T00:46:15;4.28;95.54
65207;SHT31;58477;48.072;11.970;2023-02-24T00:48:45;4.26;95.86
65207;SHT31;58477;48.072;11.970;2023-02-24T00:51:16;4.28;96.01
65207;SHT31;58477;48.072;11.970;2023-02-24T00:53:43;4.23;96.10
65207;SHT31;58477;48.072;11.970;2023-02-24T00:56:10;4.23;96.60
65207;SHT31;58477;48.072;11.970;2023-02-24T00:58:41;4.23;96.84
65207;SHT31;58477;48.072;11.970;2023-02-24T01:01:15;4.29;97.10
65207;SHT31;58477;48.072;11.970;2023-02-24T01:03:42;4.29;97.14
65207;SHT31;58477;48.072;11.970;2023-02-24T01:06:08;4.25;97.15
65207;SHT31;58477;48.072;11.970;2023-02-24T01:08:33;4.13;97.49
65207;SHT31;58477;48.072;11.970;2023-02-24T01:11:02;4.43;98.17
65207;SHT31;58477;48.072;11.970;2023-02-24T01:13:47;4.57;97.74
65207;SHT31;58477;48.072;11.970;2023-02-24T01:16:13;4.43;97.17
65207;SHT31;58477;48.072;11.970;2023-02-24T01:18:45;4.37;97.41
65207;SHT31;58477;48.072;11.970;2023-02-24T01:21:17;4.42;97.31
65207;SHT31;58477;48.072;11.970;2023-02-24T01:23:50;4.45;97.12
65207;SHT31;58477;48.072;11.970;2023-02-24T01:26:16;4.49;96.98
65207;SHT31;58477;48.072;11.970;2023-02-24T01:28:43;4.47;96.65
65207;SHT31;58477;48.072;11.970;2023-02-24T01:31:11;4.39;96.37
65207;SHT31;58477;48.072;11.970;2023-02-24T01:33:36;4.39;96.31
65207;SHT31;58477;48.072;11.970;2023-02-24T01:38:34;4.15;96.60
65207;SHT31;58477;48.072;11.970;2023-02-24T01:41:02;4.17;96.85
65207;SHT31;58477;48.072;11.970;2023-02-24T01:43:30;4.16;96.54
65207;SHT31;58477;48.072;11.970;2023-02-24T01:45:56;4.10;96.36
65207;SHT31;58477;48.072;11.970;2023-02-24T01:48:22;4.01;96.24
65207;SHT31;58477;48.072;11.970;2023-02-24T01:50:49;3.91;96.17
65207;SHT31;58477;48.072;11.970;2023-02-24T01:53:15;3.71;96.03
65207;SHT31;58477;48.072;11.970;2023-02-24T01:55:47;3.78;97.01
65207;SHT31;58477;48.072;11.970;2023-02-24T01:58:21;3.64;97.83
65207;SHT31;58477;48.072;11.970;2023-02-24T02:00:48;3.58;98.38
65207;SHT31;58477;48.072;11.970;2023-02-24T02:05:43;3.45;98.55
65207;SHT31;58477;48.072;11.970;2023-02-24T02:08:13;3.57;98.55
65207;SHT31;58477;48.072;11.970;2023-02-24T02:10:40;3.62;97.88
65207;SHT31;58477;48.072;11.970;2023-02-24T02:13:09;3.57;97.31
65207;SHT31;58477;48.072;11.970;2023-02-24T02:15:43;3.50;96.92
65207;SHT31;58477;48.072;11.970;2023-02-24T02:18:35;3.45;96.76
65207;SHT31;58477;48.072;11.970;2023-02-24T02:21:34;3.17;96.29
65207;SHT31;58477;48.072;11.970;2023-02-24T02:38:12;3.01;98.45
65207;SHT31;58477;48.072;11.970;2023-02-24T02:43:51;2.72;97.49
65207;SHT31;58477;48.072;11.970;2023-02-24T02:46:45;2.72;98.98
65207;SHT31;58477;48.072;11.970;2023-02-24T02:51:48;2.59;98.66
65207;SHT31;58477;48.072;11.970;2023-02-24T02:57:12;2.86;98.66
65207;SHT31;58477;48.072;11.970;2023-02-24T02:59:48;2.67;99.48
65207;SHT31;58477;48.072;11.970;2023-02-24T03:02:21;2.67;99.54
65207;SHT31;58477;48.072;11.970;2023-02-24T03:04:55;2.86;99.62
65207;SHT31;58477;48.072;11.970;2023-02-24T03:07:26;3.03;99.44
65207;SHT31;58477;48.072;11.970;2023-02-24T03:09:58;3.04;99.11
65207;SHT31;58477;48.072;11.970;2023-02-24T03:12:28;2.99;98.67
65207;SHT31;58477;48.072;11.970;2023-02-24T03:15:00;2.69;97.64
65207;SHT31;58477;48.072;11.970;2023-02-24T03:17:35;2.71;97.74
65207;SHT31;58477;48.072;11.970;2023-02-24T03:20:31;2.53;97.31
65207;SHT31;58477;48.072;11.970;2023-02-24T03:25:39;2.49;98.05
65207;SHT31;58477;48.072;11.970;2023-02-24T03:28:16;2.57;98.32
65207;SHT31;58477;48.072;11.970;2023-02-24T03:30:48;2.35;97.48
65207;SHT31;58477;48.072;11.970;2023-02-24T03:33:22;2.08;97.28
65207;SHT31;58477;48.072;11.970;2023-02-24T03:35:51;2.32;98.32
65207;SHT31;58477;48.072;11.970;2023-02-24T03:38:17;2.22;97.75
65207;SHT31;58477;48.072;11.970;2023-02-24T03:40:44;2.08;97.21
65207;SHT31;58477;48.072;11.970;2023-02-24T03:43:31;2.02;97.40
65207;SHT31;58477;48.072;11.970;2023-02-24T03:45:59;2.07;97.66
65207;SHT31;58477;48.072;11.970;2023-02-24T03:48:28;2.25;98.44
65207;SHT31;58477;48.072;11.970;2023-02-24T03:50:55;2.67;99.29
65207;SHT31;58477;48.072;11.970;2023-02-24T03:53:55;2.77;99.21
65207;SHT31;58477;48.072;11.970;2023-02-24T03:56:47;2.90;99.05
65207;SHT31;58477;48.072;11.970;2023-02-24T04:01:47;2.83;98.18
65207;SHT31;58477;48.072;11.970;2023-02-24T04:07:11;2.63;97.38
65207;SHT31;58477;48.072;11.970;2023-02-24T04:09:46;2.43;96.91
65207;SHT31;58477;48.072;11.970;2023-02-24T04:12:20;2.21;96.66
65207;SHT31;58477;48.072;11.970;2023-02-24T04:15:02;2.32;97.68
65207;SHT31;58477;48.072;11.970;2023-02-24T04:17:44;2.63;98.80
65207;SHT31;58477;48.072;11.970;2023-02-24T04:20:17;2.62;98.12
65207;SHT31;58477;48.072;11.970;2023-02-24T04:22:52;2.71;98.28
65207;SHT31;58477;48.072;11.970;2023-02-24T04:25:23;2.77;98.12
65207;SHT31;58477;48.072;11.970;2023-02-24T04:27:52;2.73;97.91
65207;SHT31;58477;48.072;11.970;2023-02-24T04:30:18;2.82;98.23
65207;SHT31;58477;48.072;11.970;2023-02-24T04:32:45;2.82;98.08
65207;SHT31;58477;48.072;11.970;2023-02-24T04:35:13;2.64;97.53
65207;SHT31;58477;48.072;11.970;2023-02-24T04:37:49;2.57;97.43
65207;SHT31;58477;48.072;11.970;2023-02-24T04:40:17;2.52;97.52
65207;SHT31;58477;48.072;11.970;2023-02-24T04:42:44;2.25;97.39
65207;SHT31;58477;48.072;11.970;2023-02-24T04:47:44;2.25;97.50
65207;SHT31;58477;48.072;11.970;2023-02-24T04:50:25;2.12;98.12
65207;SHT31;58477;48.072;11.970;2023-02-24T04:52:56;2.17;98.57
65207;SHT31;58477;48.072;11.970;2023-02-24T04:55:24;2.22;98.38
65207;SHT31;58477;48.072;11.970;2023-02-24T04:57:57;2.18;97.77
65207;SHT31;58477;48.072;11.970;2023-02-24T05:00:22;2.04;97.32
65207;SHT31;58477;48.072;11.970;2023-02-24T05:02:52;2.26;98.24
65207;SHT31;58477;48.072;11.970;2023-02-24T05:05:19;2.53;98.78
65207;SHT31;58477;48.072;11.970;2023-02-24T05:07:54;2.63;98.37
65207;SHT31;58477;48.072;11.970;2023-02-24T05:10:21;2.72;98.37
65207;SHT31;58477;48.072;11.970;2023-02-24T05:12:55;2.86;98.43
65207;SHT31;58477;48.072;11.970;2023-02-24T05:15:25;2.94;98.32
65207;SHT31;58477;48.072;11.970;2023-02-24T05:18:03;3.03;98.02
65207;SHT31;58477;48.072;11.970;2023-02-24T05:20:35;3.00;97.83
65207;SHT31;58477;48.072;11.970;2023-02-24T05:23:30;3.07;97.64
65207;SHT31;58477;48.072;11.970;2023-02-24T05:25:58;3.01;97.30
65207;SHT31;58477;48.072;11.970;2023-02-24T05:28:24;2.99;96.86
65207;SHT31;58477;48.072;11.970;2023-02-24T05:30:50;2.89;96.51
65207;SHT31;58477;48.072;11.970;2023-02-24T05:33:17;2.86;96.60
65207;SHT31;58477;48.072;11.970;2023-02-24T05:35:49;2.76;96.57
65207;SHT31;58477;48.072;11.970;2023-02-24T05:38:17;2.52;96.35
65207;SHT31;58477;48.072;11.970;2023-02-24T05:40:47;2.60;97.23
65207;SHT31;58477;48.072;11.970;2023-02-24T05:43:14;2.62;97.28
65207;SHT31;58477;48.072;11.970;2023-02-24T05:45:45;2.54;96.87
65207;SHT31;58477;48.072;11.970;2023-02-24T05:48:11;2.48;96.92
65207;SHT31;58477;48.072;11.970;2023-02-24T05:50:42;2.45;96.96
65207;SHT31;58477;48.072;11.970;2023-02-24T05:53:15;2.45;96.95
65207;SHT31;58477;48.072;11.970;2023-02-24T05:55:41;2.38;97.21
65207;SHT31;58477;48.072;11.970;2023-02-24T05:58:07;2.41;97.17
65207;SHT31;58477;48.072;11.970;2023-02-24T06:00:33;2.35;97.00
65207;SHT31;58477;48.072;11.970;2023-02-24T06:03:04;2.35;97.04
65207;SHT31;58477;48.072;11.970;2023-02-24T06:05:51;2.32;97.06
65207;SHT31;58477;48.072;11.970;2023-02-24T06:08:16;2.26;96.89
65207;SHT31;58477;48.072;11.970;2023-02-24T06:10:42;2.29;96.72
65207;SHT31;58477;48.072;11.970;2023-02-24T06:13:10;2.33;96.84
65207;SHT31;58477;48.072;11.970;2023-02-24T06:15:36;2.46;96.95
65207;SHT31;58477;48.072;11.970;2023-02-24T06:18:01;2.54;96.74
65207;SHT31;58477;48.072;11.970;2023-02-24T06:20:28;2.63;96.55
65207;SHT31;58477;48.072;11.970;2023-02-24T06:22:55;2.69;96.35
65207;SHT31;58477;48.072;11.970;2023-02-24T06:25:25;2.80;96.23
65207;SHT31;58477;48.072;11.970;2023-02-24T06:27:54;2.84;96.13
65207;SHT31;58477;48.072;11.970;2023-02-24T06:30:23;2.94;96.17
65207;SHT31;58477;48.072;11.970;2023-02-24T06:32:49;3.01;96.02
65207;SHT31;58477;48.072;11.970;2023-02-24T06:35:16;3.07;96.07
65207;SHT31;58477;48.072;11.970;2023-02-24T06:37:41;3.13;95.84
65207;SHT31;58477;48.072;11.970;2023-02-24T06:40:08;3.21;95.47
65207;SHT31;58477;48.072;11.970;2023-02-24T06:42:44;3.32;95.41
65207;SHT31;58477;48.072;11.970;2023-02-24T06:45:11;3.31;95.34
65207;SHT31;58477;48.072;11.970;2023-02-24T06:47:36;3.38;95.30
65207;SHT31;58477;48.072;11.970;2023-02-24T06:50:03;3.45;94.69
65207;SHT31;58477;48.072;11.970;2023-02-24T06:52:31;3.44;94.54
65207;SHT31;58477;48.072;11.970;2023-02-24T06:54:57;3.54;94.47
65207;SHT31;58477;48.072;11.970;2023-02-24T06:57:22;3.58;94.50
65207;SHT31;58477;48.072;11.970;2023-02-24T06:59:48;3.70;94.36
65207;SHT31;58477;48.072;11.970;2023-02-24T07:02:13;3.82;93.64
65207;SHT31;58477;48.072;11.970;2023-02-24T07:04:41;3.89;93.50
65207;SHT31;58477;48.072;11.970;2023-02-24T07:07:10;4.01;93.27
65207;SHT31;58477;48.072;11.970;2023-02-24T07:09:38;4.03;93.50
65207;SHT31;58477;48.072;11.970;2023-02-24T07:12:06;4.09;93.33
65207;SHT31;58477;48.072;11.970;2023-02-24T07:14:32;4.17;93.00
65207;SHT31;58477;48.072;11.970;2023-02-24T07:16:58;4.26;92.48
65207;SHT31;58477;48.072;11.970;2023-02-24T07:19:26;4.30;93.21
65207;SHT31;58477;48.072;11.970;2023-02-24T07:22:00;4.42;93.75
65207;SHT31;58477;48.072;11.970;2023-02-24T07:24:33;4.50;93.98
65207;SHT31;58477;48.072;11.970;2023-02-24T07:27:09;4.52;92.67
65207;SHT31;58477;48.072;11.970;2023-02-24T07:29:36;4.54;91.46
65207;SHT31;58477;48.072;11.970;2023-02-24T07:32:04;4.81;91.21
65207;SHT31;58477;48.072;11.970;2023-02-24T07:34:30;5.49;91.09
65207;SHT31;58477;48.072;11.970;2023-02-24T07:36:56;6.30;88.14
65207;SHT31;58477;48.072;11.970;2023-02-24T07:39:22;7.22;84.16
65207;SHT31;58477;48.072;11.970;2023-02-24T07:41:52;7.80;83.27
65207;SHT31;58477;48.072;11.970;2023-02-24T07:44:20;8.75;83.03
65207;SHT31;58477;48.072;11.970;2023-02-24T07:46:47;9.22;80.83
65207;SHT31;58477;48.072;11.970;2023-02-24T07:49:20;8.83;80.23
65207;SHT31;58477;48.072;11.970;2023-02-24T07:51:49;9.43;78.77
65207;SHT31;58477;48.072;11.970;2023-02-24T07:54:18;10.38;77.97
65207;SHT31;58477;48.072;11.970;2023-02-24T07:56:45;10.73;76.25
65207;SHT31;58477;48.072;11.970;2023-02-24T07:59:13;11.16;76.74
65207;SHT31;58477;48.072;11.970;2023-02-24T08:01:44;11.07;74.64
65207;SHT31;58477;48.072;11.970;2023-02-24T08:04:18;11.37;74.04
65207;SHT31;58477;48.072;11.970;2023-02-24T08:06:45;11.60;73.20
65207;SHT31;58477;48.072;11.970;2023-02-24T08:09:13;12.14;71.96
65207;SHT31;58477;48.072;11.970;2023-02-24T08:14:14;11.78;73.60
65207;SHT31;58477;48.072;11.970;2023-02-24T08:16:43;11.27;73.82
65207;SHT31;58477;48.072;11.970;2023-02-24T08:19:11;10.61;76.46
65207;SHT31;58477;48.072;11.970;2023-02-24T08:21:41;10.19;79.26
65207;SHT31;58477;48.072;11.970;2023-02-24T08:24:16;9.87;79.34
65207;SHT31;58477;48.072;11.970;2023-02-24T08:26:44;9.47;80.83
65207;SHT31;58477;48.072;11.970;2023-02-24T08:29:10;8.62;81.09
65207;SHT31;58477;48.072;11.970;2023-02-24T08:31:35;8.65;81.95
65207;SHT31;58477;48.072;11.970;2023-02-24T08:34:01;8.59;82.51
65207;SHT31;58477;48.072;11.970;2023-02-24T08:36:26;8.68;81.19
65207;SHT31;58477;48.072;11.970;2023-02-24T08:38:52;8.67;81.35
65207;SHT31;58477;48.072;11.970;2023-02-24T08:41:19;8.47;82.16
65207;SHT31;58477;48.072;11.970;2023-02-24T08:43:53;8.10;81.71
65207;SHT31;58477;48.072;11.970;2023-02-24T08:46:22;8.44;82.03
65207;SHT31;58477;48.072;11.970;2023-02-24T08:48:51;8.05;82.04
65207;SHT31;58477;48.072;11.970;2023-02-24T08:51:39;8.15;82.34
65207;SHT31;58477;48.072;11.970;2023-02-24T08:54:11;8.35;81.67
65207;SHT31;58477;48.072;11.970;2023-02-24T08:56:44;8.47;81.75
65207;SHT31;58477;48.072;11.970;2023-02-24T08:59:15;8.35;82.30
65207;SHT31;58477;48.072;11.970;2023-02-24T09:01:59;8.33;82.05
65207;SHT31;58477;48.072;11.970;2023-02-24T09:04:50;8.23;83.07
65207;SHT31;58477;48.072;11.970;2023-02-24T09:07:22;8.05;83.97
65207;SHT31;58477;48.072;11.970;2023-02-24T09:09:48;8.28;83.94
65207;SHT31;58477;48.072;11.970;2023-02-24T09:12:14;8.31;83.02
65207;SHT31;58477;48.072;11.970;2023-02-24T09:14:50;8.51;83.36
65207;SHT31;58477;48.072;11.970;2023-02-24T09:17:20;8.58;83.36
65207;SHT31;58477;48.072;11.970;2023-02-24T09:19:53;8.67;83.75
65207;SHT31;58477;48.072;11.970;2023-02-24T09:22:37;8.59;83.21
65207;SHT31;58477;48.072;11.970;2023-02-24T09:25:41;8.62;83.41
65207;SHT31;58477;48.072;11.970;2023-02-24T09:30:50;8.45;84.04
65207;SHT31;58477;48.072;11.970;2023-02-24T09:33:35;8.48;84.30
65207;SHT31;58477;48.072;11.970;2023-02-24T09:36:09;8.79;84.31
65207;SHT31;58477;48.072;11.970;2023-02-24T09:38:42;9.13;83.38
65207;SHT31;58477;48.072;11.970;2023-02-24T09:41:40;9.81;81.51
65207;SHT31;58477;48.072;11.970;2023-02-24T09:44:33;10.63;79.89
65207;SHT31;58477;48.072;11.970;2023-02-24T09:50:04;11.56;78.06
65207;SHT31;58477;48.072;11.970;2023-02-24T09:52:31;11.07;78.13
65207;SHT31;58477;48.072;11.970;2023-02-24T10:03:55;10.71;79.85
65207;SHT31;58477;48.072;11.970;2023-02-24T10:06:41;10.65;80.45
65207;SHT31;58477;48.072;11.970;2023-02-24T10:09:32;10.62;80.76
65207;SHT31;58477;48.072;11.970;2023-02-24T10:12:22;10.85;79.98
65207;SHT31;58477;48.072;11.970;2023-02-24T10:14:53;11.09;80.21
65207;SHT31;58477;48.072;11.970;2023-02-24T10:17:41;11.12;79.45
65207;SHT31;58477;48.072;11.970;2023-02-24T10:20:19;12.29;77.40
65207;SHT31;58477;48.072;11.970;2023-02-24T10:23:18;13.70;72.59
65207;SHT31;58477;48.072;11.970;2023-02-24T10:26:15;13.68;73.13
65207;SHT31;58477;48.072;11.970;2023-02-24T10:29:07;12.57;76.18
65207;SHT31;58477;48.072;11.970;2023-02-24T10:31:47;11.70;76.78
65207;SHT31;58477;48.072;11.970;2023-02-24T10:34:23;12.73;76.15
65207;SHT31;58477;48.072;11.970;2023-02-24T10:37:18;14.36;71.91
65207;SHT31;58477;48.072;11.970;2023-02-24T10:39:45;13.13;73.13
65207;SHT31;58477;48.072;11.970;2023-02-24T10:42:26;13.47;72.70
65207;SHT31;58477;48.072;11.970;2023-02-24T10:47:36;12.79;73.15
65207;SHT31;58477;48.072;11.970;2023-02-24T10:50:31;13.50;72.38
65207;SHT31;58477;48.072;11.970;2023-02-24T10:53:11;13.61;72.28
65207;SHT31;58477;48.072;11.970;2023-02-24T10:55:51;13.36;71.97
65207;SHT31;58477;48.072;11.970;2023-02-24T10:58:39;13.10;73.29
65207;SHT31;58477;48.072;11.970;2023-02-24T11:01:17;13.07;73.75
65207;SHT31;58477;48.072;11.970;2023-02-24T11:03:58;13.40;74.20
65207;SHT31;58477;48.072;11.970;2023-02-24T11:06:47;13.07;73.73
65207;SHT31;58477;48.072;11.970;2023-02-24T11:09:24;12.72;73.91
65207;SHT31;58477;48.072;11.970;2023-02-24T11:11:58;12.63;74.06
65207;SHT31;58477;48.072;11.970;2023-02-24T11:14:49;12.69;74.39
65207;SHT31;58477;48.072;11.970;2023-02-24T11:17:34;12.56;75.54
65207;SHT31;58477;48.072;11.970;2023-02-24T11:20:10;12.56;74.95
65207;SHT31;58477;48.072;11.970;2023-02-24T11:22:41;12.69;75.23
65207;SHT31;58477;48.072;11.970;2023-02-24T11:25:41;12.46;74.44
65207;SHT31;58477;48.072;11.970;2023-02-24T11:30:55;12.83;73.03
65207;SHT31;58477;48.072;11.970;2023-02-24T11:33:39;12.99;74.42
65207;SHT31;58477;48.072;11.970;2023-02-24T11:36:11;12.66;72.96
65207;SHT31;58477;48.072;11.970;2023-02-24T11:38:49;12.93;73.35
65207;SHT31;58477;48.072;11.970;2023-02-24T11:41:31;13.28;72.07
65207;SHT31;58477;48.072;11.970;2023-02-24T11:44:17;13.43;72.25
65207;SHT31;58477;48.072;11.970;2023-02-24T11:46:53;13.41;72.66
65207;SHT31;58477;48.072;11.970;2023-02-24T11:49:35;13.68;70.60
65207;SHT31;58477;48.072;11.970;2023-02-24T11:52:03;13.67;70.69
65207;SHT31;58477;48.072;11.970;2023-02-24T11:54:39;13.30;71.47
65207;SHT31;58477;48.072;11.970;2023-02-24T11:57:16;12.92;72.52
65207;SHT31;58477;48.072;11.970;2023-02-24T12:00:02;12.65;73.26
65207;SHT31;58477;48.072;11.970;2023-02-24T12:03:13;12.29;73.90
65207;SHT31;58477;48.072;11.970;2023-02-24T12:05:52;11.92;74.37
65207;SHT31;58477;48.072;11.970;2023-02-24T12:08:28;11.78;75.56
65207;SHT31;58477;48.072;11.970;2023-02-24T12:11:05;11.48;75.47
65207;SHT31;58477;48.072;11.970;2023-02-24T12:13:44;11.64;75.64
65207;SHT31;58477;48.072;11.970;2023-02-24T12:16:16;11.48;76.25
65207;SHT31;58477;48.072;11.970;2023-02-24T12:18:54;11.48;75.71
65207;SHT31;58477;48.072;11.970;2023-02-24T12:21:38;11.47;75.94
65207;SHT31;58477;48.072;11.970;2023-02-24T12:24:10;11.50;75.75
65207;SHT31;58477;48.072;11.970;2023-02-24T12:27:02;11.47;75.90
65207;SHT31;58477;48.072;11.970;2023-02-24T12:32:33;11.38;76.02
65207;SHT31;58477;48.072;11.970;2023-02-24T12:35:21;11.40;77.04
65207;SHT31;58477;48.072;11.970;2023-02-24T12:38:17;11.31;76.40
65207;SHT31;58477;48.072;11.970;2023-02-24T12:40:55;11.33;76.64
65207;SHT31;58477;48.072;11.970;2023-02-24T12:46:23;11.31;75.86
65207;SHT31;58477;48.072;11.970;2023-02-24T12:52:22;11.37;75.84
65207;SHT31;58477;48.072;11.970;2023-02-24T12:55:07;11.19;75.93
65207;SHT31;58477;48.072;11.970;2023-02-24T12:57:56;11.07;76.34
65207;SHT31;58477;48.072;11.970;2023-02-24T13:00:39;11.17;76.79
65207;SHT31;58477;48.072;11.970;2023-02-24T13:05:33;11.17;75.90
65207;SHT31;58477;48.072;11.970;2023-02-24T13:16:05;11.13;76.79
65207;SHT31;58477;48.072;11.970;2023-02-24T13:18:33;11.05;76.72
65207;SHT31;58477;48.072;11.970;2023-02-24T13:23:31;11.24;76.79
65207;SHT31;58477;48.072;11.970;2023-02-24T13:25:57;11.24;77.05
65207;SHT31;58477;48.072;11.970;2023-02-24T13:28:27;11.48;76.36
65207;SHT31;58477;48.072;11.970;2023-02-24T13:31:09;11.46;75.98
65207;SHT31;58477;48.072;11.970;2023-02-24T13:33:40;11.48;75.95
65207;SHT31;58477;48.072;11.970;2023-02-24T13:38:39;11.60;75.54
65207;SHT31;58477;48.072;11.970;2023-02-24T13:41:21;11.56;75.64
65207;SHT31;58477;48.072;11.970;2023-02-24T13:43:59;11.73;75.66
65207;SHT31;58477;48.072;11.970;2023-02-24T13:46:28;11.66;75.56
65207;SHT31;58477;48.072;11.970;2023-02-24T13:51:48;11.77;75.36
65207;SHT31;58477;48.072;11.970;2023-02-24T14:00:10;11.23;75.77
65207;SHT31;58477;48.072;11.970;2023-02-24T14:02:41;11.23;76.48
65207;SHT31;58477;48.072;11.970;2023-02-24T14:05:29;11.09;76.56
65207;SHT31;58477;48.072;11.970;2023-02-24T14:07:55;11.06;76.36
65207;SHT31;58477;48.072;11.970;2023-02-24T14:10:26;11.06;76.98
65207;SHT31;58477;48.072;11.970;2023-02-24T14:13:15;11.15;76.44
65207;SHT31;58477;48.072;11.970;2023-02-24T14:15:42;11.05;76.75
65207;SHT31;58477;48.072;11.970;2023-02-24T14:18:17;11.03;77.31
65207;SHT31;58477;48.072;11.970;2023-02-24T14:20:43;11.19;76.60
65207;SHT31;58477;48.072;11.970;2023-02-24T14:23:21;11.19;76.69
65207;SHT31;58477;48.072;11.970;2023-02-24T14:25:52;11.00;77.41
65207;SHT31;58477;48.072;11.970;2023-02-24T14:28:21;11.10;77.35
65207;SHT31;58477;48.072;11.970;2023-02-24T14:30:52;11.06;78.39
65207;SHT31;58477;48.072;11.970;2023-02-24T14:33:29;11.03;78.59
65207;SHT31;58477;48.072;11.970;2023-02-24T14:35:54;11.05;78.88
65207;SHT31;58477;48.072;11.970;2023-02-24T14:38:35;11.05;78.95
65207;SHT31;58477;48.072;11.970;2023-02-24T14:41:03;11.00;78.59
65207;SHT31;58477;48.072;11.970;2023-02-24T14:43:29;11.02;79.41
65207;SHT31;58477;48.072;11.970;2023-02-24T14:45:55;11.00;79.63
65207;SHT31;58477;48.072;11.970;2023-02-24T14:48:27;10.85;79.62
65207;SHT31;58477;48.072;11.970;2023-02-24T14:50:56;10.69;79.06
65207;SHT31;58477;48.072;11.970;2023-02-24T14:53:23;10.61;79.62
65207;SHT31;58477;48.072;11.970;2023-02-24T14:55:53;10.48;79.13
65207;SHT31;58477;48.072;11.970;2023-02-24T14:58:26;10.38;79.62
65207;SHT31;58477;48.072;11.970;2023-02-24T15:01:03;10.42;79.99
65207;SHT31;58477;48.072;11.970;2023-02-24T15:03:50;10.38;80.38
65207;SHT31;58477;48.072;11.970;2023-02-24T15:06:29;10.45;81.09
65207;SHT31;58477;48.072;11.970;2023-02-24T15:08:57;10.37;80.91
65207;SHT31;58477;48.072;11.970;2023-02-24T15:11:25;10.29;81.11
65207;SHT31;58477;48.072;11.970;2023-02-24T15:14:06;10.25;81.71
65207;SHT31;58477;48.072;11.970;2023-02-24T15:16:36;10.29;81.64
65207;SHT31;58477;48.072;11.970;2023-02-24T15:19:02;10.19;82.49
65207;SHT31;58477;48.072;11.970;2023-02-24T15:21:29;10.17;82.67
65207;SHT31;58477;48.072;11.970;2023-02-24T15:24:26;10.14;82.83
65207;SHT31;58477;48.072;11.970;2023-02-24T15:26:57;10.01;83.31
65207;SHT31;58477;48.072;11.970;2023-02-24T15:29:28;9.86;83.71
65207;SHT31;58477;48.072;11.970;2023-02-24T15:31:55;9.83;83.68
65207;SHT31;58477;48.072;11.970;2023-02-24T15:34:27;9.80;84.16
65207;SHT31;58477;48.072;11.970;2023-02-24T15:36:56;9.71;83.97
65207;SHT31;58477;48.072;11.970;2023-02-24T15:39:26;9.83;84.14
65207;SHT31;58477;48.072;11.970;2023-02-24T15:42:05;9.88;83.95
65207;SHT31;58477;48.072;11.970;2023-02-24T15:44:32;9.87;83.98
65207;SHT31;58477;48.072;11.970;2023-02-24T15:47:00;9.83;83.88
65207;SHT31;58477;48.072;11.970;2023-02-24T15:49:36;9.80;84.41
65207;SHT31;58477;48.072;11.970;2023-02-24T15:52:01;9.81;84.66
65207;SHT31;58477;48.072;11.970;2023-02-24T15:54:30;9.70;84.66
65207;SHT31;58477;48.072;11.970;2023-02-24T15:56:59;9.70;84.38
65207;SHT31;58477;48.072;11.970;2023-02-24T15:59:25;9.56;84.60
65207;SHT31;58477;48.072;11.970;2023-02-24T16:01:51;9.36;84.92
65207;SHT31;58477;48.072;11.970;2023-02-24T16:04:17;9.27;85.39
65207;SHT31;58477;48.072;11.970;2023-02-24T16:06:43;9.16;85.60
65207;SHT31;58477;48.072;11.970;2023-02-24T16:09:34;9.16;85.94
65207;SHT31;58477;48.072;11.970;2023-02-24T16:12:04;9.16;85.85
65207;SHT31;58477;48.072;11.970;2023-02-24T16:14:30;9.06;85.41
65207;SHT31;58477;48.072;11.970;2023-02-24T16:16:57;9.06;85.35
65207;SHT31;58477;48.072;11.970;2023-02-24T16:19:23;8.99;84.70
65207;SHT31;58477;48.072;11.970;2023-02-24T16:21:48;8.96;84.78
65207;SHT31;58477;48.072;11.970;2023-02-24T16:24:14;8.89;85.00
65207;SHT31;58477;48.072;11.970;2023-02-24T16:26:39;8.86;85.17
65207;SHT31;58477;48.072;11.970;2023-02-24T16:29:06;8.79;85.37
65207;SHT31;58477;48.072;11.970;2023-02-24T16:31:36;8.79;85.48
65207;SHT31;58477;48.072;11.970;2023-02-24T16:34:02;8.75;85.65
65207;SHT31;58477;48.072;11.970;2023-02-24T16:36:28;8.72;85.88
65207;SHT31;58477;48.072;11.970;2023-02-24T16:38:55;8.71;85.83
65207;SHT31;58477;48.072;11.970;2023-02-24T16:41:20;8.67;85.83
65207;SHT31;58477;48.072;11.970;2023-02-24T16:43:46;8.61;85.55
65207;SHT31;58477;48.072;11.970;2023-02-24T16:46:17;8.58;85.63
65207;SHT31;58477;48.072;11.970;2023-02-24T16:48:47;8.55;85.88
65207;SHT31;58477;48.072;11.970;2023-02-24T16:51:13;8.59;85.50
65207;SHT31;58477;48.072;11.970;2023-02-24T16:53:39;8.58;85.58
65207;SHT31;58477;48.072;11.970;2023-02-24T16:56:05;8.57;85.74
65207;SHT31;58477;48.072;11.970;2023-02-24T16:58:31;8.58;85.41
65207;SHT31;58477;48.072;11.970;2023-02-24T17:00:58;8.59;85.59
65207;SHT31;58477;48.072;11.970;2023-02-24T17:03:43;8.61;85.60
65207;SHT31;58477;48.072;11.970;2023-02-24T17:06:09;8.61;86.01
65207;SHT31;58477;48.072;11.970;2023-02-24T17:08:35;8.58;85.87
65207;SHT31;58477;48.072;11.970;2023-02-24T17:11:00;8.57;86.34
65207;SHT31;58477;48.072;11.970;2023-02-24T17:13:26;8.44;87.03
65207;SHT31;58477;48.072;11.970;2023-02-24T17:15:52;8.25;88.59
65207;SHT31;58477;48.072;11.970;2023-02-24T17:18:20;8.07;89.08
65207;SHT31;58477;48.072;11.970;2023-02-24T17:20:46;8.00;89.25
65207;SHT31;58477;48.072;11.970;2023-02-24T17:23:12;7.93;89.67
65207;SHT31;58477;48.072;11.970;2023-02-24T17:25:37;7.87;90.71
65207;SHT31;58477;48.072;11.970;2023-02-24T17:28:03;7.82;90.85
65207;SHT31;58477;48.072;11.970;2023-02-24T17:30:31;7.74;92.05
65207;SHT31;58477;48.072;11.970;2023-02-24T17:32:57;7.59;92.48